createdAt,value
2018-10-12T00:01:18.089Z,11.23
2018-10-12T00:04:11.653Z,11.19
2018-10-12T00:13:13.170Z,11.21
2018-10-12T00:16:00.883Z,11.20
2018-10-12T00:18:49.207Z,11.85
2018-10-12T00:21:48.364Z,12.00
2018-10-12T00:24:36.029Z,11.33
2018-10-12T00:27:25.354Z,11.20
2018-10-12T00:30:20.808Z,11.17
2018-10-12T00:33:09.836Z,11.16
2018-10-12T00:39:14.722Z,11.20
2018-10-12T00:45:12.522Z,11.20
2018-10-12T00:48:00.043Z,11.21
2018-10-12T00:50:48.052Z,11.22
2018-10-12T00:53:35.885Z,11.88
2018-10-12T00:56:25.405Z,11.50
2018-10-12T01:02:34.838Z,11.32
2018-10-12T01:05:32.571Z,11.16
2018-10-12T01:11:35.677Z,11.08
2018-10-12T01:14:23.304Z,11.09
2018-10-12T01:20:21.866Z,11.25
2018-10-12T01:23:17.810Z,11.16
2018-10-12T01:26:07.070Z,11.08
2018-10-12T01:29:05.033Z,11.02
2018-10-12T01:32:00.609Z,10.97
2018-10-12T01:34:48.239Z,10.92
2018-10-12T01:37:39.460Z,10.90
2018-10-12T01:40:24.408Z,11.55
2018-10-12T01:43:13.069Z,11.10
2018-10-12T01:49:09.595Z,10.94
2018-10-12T01:51:56.936Z,10.88
2018-10-12T01:54:56.810Z,10.85
2018-10-12T02:04:01.783Z,10.91
2018-10-12T02:06:51.935Z,10.93
2018-10-12T02:09:42.487Z,10.95
2018-10-12T02:12:35.029Z,10.96
2018-10-12T02:15:34.353Z,10.95
2018-10-12T02:18:27.657Z,10.94
2018-10-12T02:21:22.684Z,10.92
2018-10-12T02:24:12.406Z,10.92
2018-10-12T02:26:59.725Z,10.93
2018-10-12T02:29:52.219Z,10.95
2018-10-12T02:32:43.736Z,10.94
2018-10-12T02:35:44.316Z,11.59
2018-10-12T02:38:38.099Z,11.20
2018-10-12T02:41:26.263Z,11.16
2018-10-12T02:44:15.073Z,11.13
2018-10-12T02:47:05.714Z,11.10
2018-10-12T02:49:55.459Z,11.08
2018-10-12T02:52:44.395Z,11.07
2018-10-12T03:01:47.705Z,11.03
2018-10-12T03:04:34.668Z,11.05
2018-10-12T03:10:33.881Z,11.06
2018-10-12T03:13:21.728Z,11.05
2018-10-12T03:16:09.426Z,11.05
2018-10-12T03:18:57.916Z,11.03
2018-10-12T03:21:47.051Z,11.01
2018-10-12T03:24:42.460Z,11.00
2018-10-12T03:27:43.870Z,11.01
2018-10-12T03:30:39.792Z,11.01
2018-10-12T03:33:27.535Z,11.01
2018-10-12T03:36:25.430Z,11.00
2018-10-12T03:42:32.175Z,10.98
2018-10-12T03:48:35.714Z,11.02
2018-10-12T03:51:34.447Z,11.05
2018-10-12T03:54:22.841Z,11.07
2018-10-12T04:03:26.745Z,11.05
2018-10-12T04:06:17.300Z,11.68
2018-10-12T04:12:20.786Z,11.20
2018-10-12T04:15:11.479Z,11.17
2018-10-12T04:21:06.018Z,11.36
2018-10-12T04:23:54.771Z,11.30
2018-10-12T04:26:46.286Z,11.91
2018-10-12T04:29:42.663Z,11.46
2018-10-12T04:35:53.950Z,11.28
2018-10-12T04:38:50.266Z,11.26
2018-10-12T04:47:57.958Z,11.23
2018-10-12T04:57:07.647Z,11.19
2018-10-12T04:59:56.430Z,11.16
2018-10-12T05:02:45.909Z,11.14
2018-10-12T05:05:42.480Z,11.12
2018-10-12T05:11:37.509Z,11.32
2018-10-12T05:14:24.576Z,11.26
2018-10-12T05:17:12.134Z,11.21
2018-10-12T05:19:59.590Z,11.19
2018-10-12T05:22:49.192Z,11.86
2018-10-12T05:25:36.517Z,11.41
2018-10-12T05:34:47.346Z,11.30
2018-10-12T05:37:34.751Z,12.03
2018-10-12T05:40:25.517Z,11.64
2018-10-12T05:43:20.509Z,11.62
2018-10-12T05:46:08.036Z,11.66
2018-10-12T05:52:35.030Z,11.74
2018-10-12T05:55:22.792Z,11.79
2018-10-12T05:58:11.413Z,11.84
2018-10-12T06:04:06.051Z,11.97
2018-10-12T06:06:53.471Z,12.05
2018-10-12T06:09:45.908Z,12.11
2018-10-12T06:12:33.654Z,12.16
2018-10-12T06:15:26.250Z,12.93
2018-10-12T06:18:13.997Z,12.56
2018-10-12T06:21:01.911Z,13.28
2018-10-12T06:23:49.778Z,12.93
2018-10-12T06:26:37.879Z,12.99
2018-10-12T06:38:52.099Z,13.58
2018-10-12T06:41:40.242Z,13.76
2018-10-12T06:44:28.625Z,13.92
2018-10-12T06:50:24.743Z,14.14
2018-10-12T06:53:14.997Z,14.11
2018-10-12T06:59:11.230Z,14.02
2018-10-12T07:02:01.692Z,14.01
2018-10-12T07:04:52.741Z,13.99
2018-10-12T07:07:42.533Z,13.99
2018-10-12T07:16:43.876Z,14.77
2018-10-12T07:19:32.506Z,15.78
2018-10-12T07:22:20.379Z,15.52
2018-10-12T07:25:08.211Z,16.45
2018-10-12T07:34:10.484Z,16.69
2018-10-12T07:37:11.254Z,16.69
2018-10-12T07:43:06.697Z,16.89
2018-10-12T07:46:04.720Z,17.01
2018-10-12T07:48:52.373Z,17.17
2018-10-12T07:54:57.356Z,17.74
2018-10-12T07:57:51.674Z,17.82
2018-10-12T08:00:47.436Z,17.95
2018-10-12T08:03:36.020Z,18.07
2018-10-12T08:06:24.310Z,18.23
2018-10-12T08:09:13.370Z,18.36
2018-10-12T08:12:01.365Z,19.46
2018-10-12T08:14:50.539Z,18.95
2018-10-12T08:17:39.407Z,19.00
2018-10-12T08:20:27.263Z,19.09
2018-10-12T08:23:15.219Z,19.21
2018-10-12T08:26:02.774Z,19.33
2018-10-12T08:28:52.041Z,20.47
2018-10-12T08:31:40.090Z,19.94
2018-10-12T08:34:29.622Z,20.92
2018-10-12T08:40:37.006Z,20.39
2018-10-12T08:46:31.393Z,20.68
2018-10-12T08:49:27.557Z,20.85
2018-10-12T08:52:21.243Z,21.03
2018-10-12T08:55:09.979Z,21.13
2018-10-12T08:57:57.720Z,21.29
2018-10-12T09:00:47.452Z,21.47
2018-10-12T09:03:35.479Z,21.73
2018-10-12T09:06:24.554Z,21.93
2018-10-12T09:09:12.528Z,22.19
2018-10-12T09:12:03.272Z,22.41
2018-10-12T09:14:52.115Z,22.61
2018-10-12T09:17:39.775Z,23.98
2018-10-12T09:20:27.425Z,23.36
2018-10-12T09:23:16.553Z,23.52
2018-10-12T09:26:04.226Z,24.78
2018-10-12T09:28:51.547Z,24.14
2018-10-12T09:31:39.530Z,24.05
2018-10-12T09:34:27.439Z,25.22
2018-10-12T09:37:16.926Z,24.51
2018-10-12T09:40:05.170Z,24.55
2018-10-12T09:42:53.131Z,24.57
2018-10-12T09:45:40.548Z,24.65
2018-10-12T09:48:28.451Z,24.71
2018-10-12T09:51:16.415Z,24.75
2018-10-12T09:54:04.566Z,25.87
2018-10-12T09:56:55.824Z,25.17
2018-10-12T10:02:53.863Z,26.19
2018-10-12T10:09:48.418Z,25.39
2018-10-12T10:12:35.967Z,25.43
2018-10-12T10:15:26.001Z,25.48
2018-10-12T10:18:13.904Z,25.49
2018-10-12T10:24:09.496Z,25.47
2018-10-12T10:26:57.823Z,25.51
2018-10-12T10:29:46.394Z,25.49
2018-10-12T10:32:38.393Z,25.48
2018-10-12T10:38:36.217Z,25.59
2018-10-12T10:41:26.413Z,25.67
2018-10-12T10:44:15.263Z,25.69
2018-10-12T10:47:03.795Z,25.75
2018-10-12T10:49:54.061Z,25.75
2018-10-12T10:55:52.367Z,25.75
2018-10-12T10:58:39.935Z,25.79
2018-10-12T11:01:27.592Z,25.82
2018-10-12T11:04:18.141Z,25.82
2018-10-12T11:07:07.021Z,25.84
2018-10-12T11:13:18.418Z,26.15
2018-10-12T11:16:05.778Z,26.03
2018-10-12T11:18:53.504Z,26.07
2018-10-12T11:21:40.953Z,26.13
2018-10-12T11:24:28.528Z,26.14
2018-10-12T11:27:20.130Z,26.20
2018-10-12T11:30:09.976Z,26.28
2018-10-12T11:32:57.956Z,26.30
2018-10-12T11:35:45.727Z,26.33
2018-10-12T11:38:33.472Z,27.35
2018-10-12T11:41:21.386Z,27.60
2018-10-12T11:44:10.763Z,27.80
2018-10-12T11:47:04.321Z,27.15
2018-10-12T11:49:51.894Z,27.06
2018-10-12T11:52:39.081Z,27.04
2018-10-12T11:55:27.243Z,27.98
2018-10-12T11:58:15.043Z,27.36
2018-10-12T12:01:04.031Z,27.31
2018-10-12T12:03:52.983Z,27.31
2018-10-12T12:06:41.255Z,27.32
2018-10-12T12:09:43.160Z,28.37
2018-10-12T12:12:32.350Z,27.70
2018-10-12T12:15:22.537Z,28.68
2018-10-12T12:18:11.587Z,28.02
2018-10-12T12:21:00.120Z,27.92
2018-10-12T12:27:03.210Z,27.97
2018-10-12T12:29:50.650Z,28.01
2018-10-12T12:32:40.548Z,28.06
2018-10-12T12:35:33.296Z,28.12
2018-10-12T12:38:20.143Z,28.09
2018-10-12T12:41:09.273Z,28.14
2018-10-12T12:44:00.231Z,28.16
2018-10-12T12:46:51.492Z,28.18
2018-10-12T12:49:43.000Z,28.20
2018-10-12T12:52:30.594Z,28.23
2018-10-12T12:55:18.439Z,28.19
2018-10-12T12:58:08.078Z,28.22
2018-10-12T13:00:59.219Z,28.27
2018-10-12T13:03:47.807Z,28.27
2018-10-12T13:06:48.849Z,29.29
2018-10-12T13:09:35.939Z,28.64
2018-10-12T13:12:30.464Z,28.51
2018-10-12T13:15:18.833Z,28.52
2018-10-12T13:18:09.374Z,28.49
2018-10-12T13:24:05.052Z,28.40
2018-10-12T13:30:00.422Z,28.34
2018-10-12T13:32:53.965Z,28.31
2018-10-12T13:35:42.074Z,28.30
2018-10-12T13:38:30.742Z,28.25
2018-10-12T13:41:18.996Z,28.20
2018-10-12T13:44:06.092Z,28.16
2018-10-12T13:46:56.363Z,28.10
2018-10-12T13:49:51.998Z,28.03
2018-10-12T13:52:40.152Z,27.95
2018-10-12T13:55:29.812Z,28.81
2018-10-12T13:58:25.120Z,28.10
2018-10-12T14:01:15.834Z,28.79
2018-10-12T14:04:18.763Z,28.04
2018-10-12T14:07:06.310Z,27.82
2018-10-12T14:09:54.066Z,27.68
2018-10-12T14:12:41.648Z,27.57
2018-10-12T14:15:29.426Z,27.48
2018-10-12T14:18:17.855Z,27.39
2018-10-12T14:21:05.355Z,27.32
2018-10-12T14:23:52.906Z,27.26
2018-10-12T14:26:40.910Z,27.20
2018-10-12T14:29:28.184Z,27.14
2018-10-12T14:32:17.724Z,27.10
2018-10-12T14:35:06.581Z,27.05
2018-10-12T14:37:59.396Z,26.99
2018-10-12T14:40:47.422Z,26.96
2018-10-12T14:43:35.107Z,26.90
2018-10-12T14:46:24.658Z,26.85
2018-10-12T14:49:13.429Z,26.81
2018-10-12T14:52:03.268Z,26.73
2018-10-12T14:54:51.603Z,26.67
2018-10-12T14:57:39.266Z,27.43
2018-10-12T15:00:26.615Z,26.80
2018-10-12T15:03:14.000Z,26.63
2018-10-12T15:06:13.812Z,26.53
2018-10-12T15:09:01.555Z,27.21
2018-10-12T15:11:49.062Z,26.51
2018-10-12T15:17:42.942Z,26.10
2018-10-12T15:20:30.912Z,25.94
2018-10-12T15:23:18.870Z,25.81
2018-10-12T15:26:06.809Z,26.43
2018-10-12T15:28:53.777Z,25.77
2018-10-12T15:31:41.317Z,26.29
2018-10-12T15:34:28.715Z,25.61
2018-10-12T15:37:24.830Z,25.37
2018-10-12T15:40:12.910Z,25.18
2018-10-12T15:43:01.130Z,25.02
2018-10-12T15:45:48.644Z,24.86
2018-10-12T15:48:36.691Z,24.71
2018-10-12T15:54:30.784Z,24.40
2018-10-12T16:00:25.443Z,24.10
2018-10-12T16:03:14.031Z,23.96
2018-10-12T16:06:02.267Z,23.83
2018-10-12T16:08:50.140Z,24.41
2018-10-12T16:11:38.266Z,23.83
2018-10-12T16:14:26.836Z,23.62
2018-10-12T16:17:14.877Z,23.47
2018-10-12T16:20:02.389Z,23.30
2018-10-12T16:22:50.949Z,23.85
2018-10-12T16:26:13.011Z,23.25
2018-10-12T16:29:00.590Z,23.73
2018-10-12T16:31:52.766Z,23.10
2018-10-12T16:34:46.932Z,22.89
2018-10-12T16:37:34.984Z,22.72
2018-10-12T16:43:30.280Z,22.44
2018-10-12T16:46:17.943Z,23.04
2018-10-12T16:49:05.735Z,22.44
2018-10-12T16:51:53.057Z,22.22
2018-10-12T16:54:43.354Z,22.03
2018-10-12T16:57:30.836Z,21.86
2018-10-12T17:00:19.205Z,22.42
2018-10-12T17:03:06.242Z,21.83
2018-10-12T17:05:54.255Z,22.31
2018-10-12T17:08:41.491Z,21.69
2018-10-12T17:11:31.971Z,21.45
2018-10-12T17:14:19.693Z,21.25
2018-10-12T17:17:08.158Z,21.00
2018-10-12T17:23:02.668Z,20.47
2018-10-12T17:25:50.374Z,21.08
2018-10-12T17:28:37.931Z,20.38
2018-10-12T17:31:26.013Z,20.16
2018-10-12T17:37:19.728Z,19.71
2018-10-12T17:40:07.634Z,19.63
2018-10-12T17:42:55.735Z,19.57
2018-10-12T17:45:50.881Z,19.50
2018-10-12T17:48:39.770Z,19.44
2018-10-12T17:51:27.522Z,20.16
2018-10-12T17:54:15.063Z,19.62
2018-10-12T17:57:04.802Z,19.47
2018-10-12T17:59:53.740Z,19.35
2018-10-12T18:02:43.737Z,19.26
2018-10-12T18:11:46.268Z,19.39
2018-10-12T18:14:34.512Z,19.31
2018-10-12T18:17:23.528Z,19.27
2018-10-12T18:20:12.186Z,19.25
2018-10-12T18:22:59.490Z,19.93
2018-10-12T18:25:57.557Z,19.46
2018-10-12T18:31:54.541Z,19.27
2018-10-12T18:37:54.778Z,19.29
2018-10-12T18:40:42.783Z,19.81
2018-10-12T18:43:31.504Z,19.18
2018-10-12T18:46:20.523Z,18.96
2018-10-12T18:49:08.945Z,19.55
2018-10-12T18:51:57.377Z,18.91
2018-10-12T18:54:44.975Z,19.42
2018-10-12T18:57:32.425Z,18.75
2018-10-12T19:00:20.800Z,18.52
2018-10-12T19:03:08.728Z,18.38
2018-10-12T19:05:57.137Z,18.26
2018-10-12T19:08:50.958Z,18.15
2018-10-12T19:11:37.562Z,18.04
2018-10-12T19:14:27.883Z,17.94
2018-10-12T19:17:16.588Z,17.87
2018-10-12T19:20:04.825Z,17.82
2018-10-12T19:22:52.573Z,17.77
2018-10-12T19:25:41.502Z,17.76
2018-10-12T19:28:30.071Z,17.77
2018-10-12T19:31:21.690Z,17.70
2018-10-12T19:34:13.875Z,18.37
2018-10-12T19:37:03.944Z,18.59
2018-10-12T19:39:54.816Z,18.04
2018-10-12T19:42:43.045Z,17.90
2018-10-12T19:48:45.512Z,17.72
2018-10-12T19:54:44.026Z,17.63
2018-10-12T19:57:33.761Z,17.56
2018-10-12T20:00:22.188Z,17.50
2018-10-12T20:06:21.193Z,17.33
2018-10-12T20:09:09.626Z,17.23
2018-10-12T20:12:15.200Z,17.13
2018-10-12T20:15:02.414Z,17.03
2018-10-12T20:17:51.632Z,16.96
2018-10-12T20:20:42.630Z,16.89
2018-10-12T20:23:42.552Z,16.84
2018-10-12T20:26:30.658Z,16.78
2018-10-12T20:32:31.641Z,16.61
2018-10-12T20:35:19.756Z,16.54
2018-10-12T20:38:26.411Z,16.47
2018-10-12T20:44:22.574Z,16.32
2018-10-12T20:47:11.505Z,16.26
2018-10-12T20:49:59.797Z,16.22
2018-10-12T20:52:48.656Z,16.20
2018-10-12T20:55:38.267Z,16.18
2018-10-12T20:58:25.905Z,16.16
2018-10-12T21:01:14.555Z,16.09
2018-10-12T21:04:02.460Z,16.02
2018-10-12T21:06:53.019Z,16.67
2018-10-12T21:12:48.446Z,16.36
2018-10-12T21:15:36.505Z,16.26
2018-10-12T21:18:24.462Z,16.92
2018-10-12T21:21:12.467Z,16.48
2018-10-12T21:28:43.485Z,16.46
2018-10-12T21:31:33.534Z,17.09
2018-10-12T21:34:27.459Z,16.61
2018-10-12T21:37:14.891Z,16.48
2018-10-12T21:40:12.180Z,16.42
2018-10-12T21:43:16.363Z,16.39
2018-10-12T21:46:03.925Z,16.36
2018-10-12T21:48:52.727Z,16.98
2018-10-12T21:51:40.154Z,16.52
2018-10-12T21:54:40.912Z,16.44
2018-10-12T21:57:29.687Z,16.37
2018-10-12T22:00:18.736Z,16.33
2018-10-12T22:03:06.229Z,16.29
2018-10-12T22:05:55.944Z,16.90
2018-10-12T22:08:44.843Z,16.45
2018-10-12T22:11:35.094Z,16.36
2018-10-12T22:14:24.246Z,16.29
2018-10-12T22:17:13.337Z,16.21
2018-10-12T22:20:05.733Z,16.18
2018-10-12T22:22:53.732Z,16.78
2018-10-12T22:28:53.705Z,16.20
2018-10-12T22:31:41.721Z,16.79
2018-10-12T22:34:30.847Z,16.30
2018-10-12T22:37:18.755Z,16.16
2018-10-12T22:43:12.648Z,16.22
2018-10-12T22:46:01.977Z,16.11
2018-10-12T22:48:52.365Z,16.05
2018-10-12T22:51:41.729Z,15.99
2018-10-12T22:54:29.398Z,15.92
2018-10-12T22:57:18.929Z,15.83
2018-10-12T23:00:08.819Z,15.74
2018-10-12T23:02:57.941Z,15.65
2018-10-12T23:05:49.428Z,16.29
2018-10-12T23:08:38.881Z,16.46
2018-10-12T23:11:27.913Z,15.92
2018-10-12T23:14:18.546Z,15.79
2018-10-12T23:17:08.377Z,15.70
2018-10-12T23:20:01.201Z,15.63
2018-10-12T23:22:49.123Z,15.62
2018-10-12T23:25:38.810Z,15.59
2018-10-12T23:28:26.479Z,15.57
2018-10-12T23:31:14.231Z,15.56
2018-10-12T23:34:01.960Z,15.56
2018-10-12T23:36:49.708Z,15.56
2018-10-12T23:39:43.589Z,16.18
2018-10-12T23:42:31.090Z,15.75
2018-10-12T23:48:28.858Z,15.62
2018-10-12T23:51:17.592Z,15.58
2018-10-12T23:54:05.305Z,15.57
2018-10-12T23:56:52.950Z,15.55
2018-10-12T23:59:40.852Z,15.52
